Lansing, MN

12:37 PM CDT on July 23, 2016 (GMT -0500)
Austin Municipal | | Change Station

Elev 1230 ft 43.67 °N, 92.93 °W | Updated 22 minutes ago

Heavy Thunderstorms and Rain
Heavy Thunderstorm Rain
72 °F
Feels Like 72 °F
N
17
Wind Variable Wind from East
Gusts 22 mph

Today
High -- | Low -- °F
--% Chance of Precip.
Yesterday
High -- | Low -- °F
Precip. -- in
Pressure 29.96 in
Visibility 2.5 miles
Clouds Scattered Clouds 200 ft
Mostly Cloudy 600 ft
Overcast 2700 ft
Dew Point 70 °F
Humidity 94%
Rainfall 2.97 in
Snow Depth Not available.
5:52 AM 8:44 PM
Waning Gibbous, 84% visible
METAR KAUM 231715Z AUTO 10015G19KT 2 1/2SM +VCTSRA SCT002 BKN006 OVC027 22/21 A2996 RMK AO2 VIS 1 1/2V5 P0041 LTG DSNT ALQDS
Pressure 29.96 in
Visibility 2.5 miles
Clouds Scattered Clouds 200 ft
Mostly Cloudy 600 ft
Overcast 2700 ft
Dew Point 70 °F
Humidity 94%
Rainfall 2.97 in
Snow Depth Not available.
5:52 AM 8:44 PM
Waning Gibbous, 84% visible
METAR KAUM 231715Z AUTO 10015G19KT 2 1/2SM +VCTSRA SCT002 BKN006 OVC027 22/21 A2996 RMK AO2 VIS 1 1/2V5 P0041 LTG DSNT ALQDS

10-Day Weather Forecast

Almanac

Astronomy

Jul. 23, 2016 Rise Set
Actual Time
Civil Twilight
Nautical Twilight
Astronomical Twilight
Moon
Length of Visible Light
Length of Day
Tomorrow will be .
, % of the Moon is Illuminated

Today's Extremes

State Highs State Lows

Community

WunderPhotos

Upload Photos

1,926,878 photos uploaded!

WunderBlog® & News

Nearby

Air Quality

  Air Quality AQ Index Pollutant
Not available.

Snow Depth

Station Depth Elevation

Earthquake Activity

City Distance Mag. Time & Date
Minimum magnitude displayed is 2.5.

Coastal Water Temperatures

Place Temperature

Stations

Nearby Weather Stations

Station Location Temp. Windchill Dew Point Humidity Wind Precip. Elev Updated Type
                   

Watches & Warnings

There are currently no watches in effect.